sensor_id;sensor_type;location;lat;lon;timestamp;temperature;humidity
16838;DHT22;19510;54.486;9.046;2023-02-01T00:00:20;6.20;99.90
16838;DHT22;19510;54.486;9.046;2023-02-01T00:02:45;6.20;99.90
16838;DHT22;19510;54.486;9.046;2023-02-01T00:05:11;6.20;99.90
16838;DHT22;19510;54.486;9.046;2023-02-01T00:07:37;6.20;99.90
16838;DHT22;19510;54.486;9.046;2023-02-01T00:10:04;6.20;99.90
16838;DHT22;19510;54.486;9.046;2023-02-01T00:12:30;6.20;99.90
16838;DHT22;19510;54.486;9.046;2023-02-01T00:14:56;6.20;99.90
16838;DHT22;19510;54.486;9.046;2023-02-01T00:17:22;6.10;99.90
16838;DHT22;19510;54.486;9.046;2023-02-01T00:19:48;6.10;99.90
16838;DHT22;19510;54.486;9.046;2023-02-01T00:22:13;6.20;99.90
16838;DHT22;19510;54.486;9.046;2023-02-01T00:24:41;6.20;99.90
16838;DHT22;19510;54.486;9.046;2023-02-01T00:27:07;6.20;99.90
16838;DHT22;19510;54.486;9.046;2023-02-01T00:29:33;6.20;99.90
16838;DHT22;19510;54.486;9.046;2023-02-01T00:31:58;6.20;99.90
16838;DHT22;19510;54.486;9.046;2023-02-01T00:34:24;6.20;99.90
16838;DHT22;19510;54.486;9.046;2023-02-01T00:36:50;6.20;99.90
16838;DHT22;19510;54.486;9.046;2023-02-01T00:39:17;6.20;99.90
16838;DHT22;19510;54.486;9.046;2023-02-01T00:41:43;6.20;99.90
16838;DHT22;19510;54.486;9.046;2023-02-01T00:44:09;6.20;99.90
16838;DHT22;19510;54.486;9.046;2023-02-01T00:46:35;6.20;99.90
16838;DHT22;19510;54.486;9.046;2023-02-01T00:49:01;6.20;99.90
16838;DHT22;19510;54.486;9.046;2023-02-01T00:51:28;6.20;99.90
16838;DHT22;19510;54.486;9.046;2023-02-01T00:53:54;6.20;99.90
16838;DHT22;19510;54.486;9.046;2023-02-01T00:56:20;6.20;99.90
16838;DHT22;19510;54.486;9.046;2023-02-01T00:58:46;6.20;99.90
16838;DHT22;19510;54.486;9.046;2023-02-01T01:01:20;6.20;99.90
16838;DHT22;19510;54.486;9.046;2023-02-01T01:03:50;6.20;99.90
16838;DHT22;19510;54.486;9.046;2023-02-01T01:06:19;6.20;99.90
16838;DHT22;19510;54.486;9.046;2023-02-01T01:08:45;6.20;99.90
16838;DHT22;19510;54.486;9.046;2023-02-01T01:11:12;6.20;99.90
16838;DHT22;19510;54.486;9.046;2023-02-01T01:13:42;6.20;99.90
16838;DHT22;19510;54.486;9.046;2023-02-01T01:16:09;6.20;99.90
16838;DHT22;19510;54.486;9.046;2023-02-01T01:18:36;6.10;99.90
16838;DHT22;19510;54.486;9.046;2023-02-01T01:21:06;6.20;99.90
16838;DHT22;19510;54.486;9.046;2023-02-01T01:23:32;6.10;99.90
16838;DHT22;19510;54.486;9.046;2023-02-01T01:25:59;6.10;99.90
16838;DHT22;19510;54.486;9.046;2023-02-01T01:28:24;6.10;99.90
16838;DHT22;19510;54.486;9.046;2023-02-01T01:30:50;6.10;99.90
16838;DHT22;19510;54.486;9.046;2023-02-01T01:33:15;6.20;99.90
16838;DHT22;19510;54.486;9.046;2023-02-01T01:35:43;6.20;99.90
16838;DHT22;19510;54.486;9.046;2023-02-01T01:38:10;6.20;99.90
16838;DHT22;19510;54.486;9.046;2023-02-01T01:40:36;6.10;99.90
16838;DHT22;19510;54.486;9.046;2023-02-01T01:43:03;6.10;99.90
16838;DHT22;19510;54.486;9.046;2023-02-01T01:45:29;6.10;99.90
16838;DHT22;19510;54.486;9.046;2023-02-01T01:51:04;6.10;99.90
16838;DHT22;19510;54.486;9.046;2023-02-01T01:53:40;6.10;99.90
16838;DHT22;19510;54.486;9.046;2023-02-01T01:56:09;6.10;99.90
16838;DHT22;19510;54.486;9.046;2023-02-01T01:58:35;6.00;99.90
16838;DHT22;19510;54.486;9.046;2023-02-01T02:01:01;6.00;99.90
16838;DHT22;19510;54.486;9.046;2023-02-01T02:03:35;6.00;99.90
16838;DHT22;19510;54.486;9.046;2023-02-01T02:06:04;6.10;99.90
16838;DHT22;19510;54.486;9.046;2023-02-01T02:08:33;6.10;99.90
16838;DHT22;19510;54.486;9.046;2023-02-01T02:10:58;6.00;99.90
16838;DHT22;19510;54.486;9.046;2023-02-01T02:13:42;6.10;99.90
16838;DHT22;19510;54.486;9.046;2023-02-01T02:21:23;6.10;99.90
16838;DHT22;19510;54.486;9.046;2023-02-01T02:27:02;6.00;99.90
16838;DHT22;19510;54.486;9.046;2023-02-01T02:40:43;6.10;99.90
16838;DHT22;19510;54.486;9.046;2023-02-01T02:43:22;6.10;99.90
16838;DHT22;19510;54.486;9.046;2023-02-01T02:46:48;6.00;99.90
16838;DHT22;19510;54.486;9.046;2023-02-01T02:49:47;6.10;99.90
16838;DHT22;19510;54.486;9.046;2023-02-01T02:52:41;6.10;99.90
16838;DHT22;19510;54.486;9.046;2023-02-01T02:55:28;6.10;99.90
16838;DHT22;19510;54.486;9.046;2023-02-01T02:57:58;6.10;99.90
16838;DHT22;19510;54.486;9.046;2023-02-01T03:00:44;5.80;99.90
16838;DHT22;19510;54.486;9.046;2023-02-01T03:03:29;5.60;99.90
16838;DHT22;19510;54.486;9.046;2023-02-01T03:06:15;5.50;99.90
16838;DHT22;19510;54.486;9.046;2023-02-01T03:08:43;5.50;99.90
16838;DHT22;19510;54.486;9.046;2023-02-01T03:11:13;5.40;99.90
16838;DHT22;19510;54.486;9.046;2023-02-01T03:16:28;5.30;99.90
16838;DHT22;19510;54.486;9.046;2023-02-01T03:21:41;5.30;99.90
16838;DHT22;19510;54.486;9.046;2023-02-01T03:27:02;5.50;99.90
16838;DHT22;19510;54.486;9.046;2023-02-01T03:29:38;5.50;99.90
16838;DHT22;19510;54.486;9.046;2023-02-01T03:32:06;5.40;99.90
16838;DHT22;19510;54.486;9.046;2023-02-01T03:34:32;5.30;99.90
16838;DHT22;19510;54.486;9.046;2023-02-01T03:37:02;5.40;99.90
16838;DHT22;19510;54.486;9.046;2023-02-01T03:42:26;5.40;99.90
16838;DHT22;19510;54.486;9.046;2023-02-01T03:47:36;5.60;99.90
16838;DHT22;19510;54.486;9.046;2023-02-01T03:50:13;5.70;99.90
16838;DHT22;19510;54.486;9.046;2023-02-01T03:52:44;5.80;99.90
16838;DHT22;19510;54.486;9.046;2023-02-01T03:55:12;5.80;99.90
16838;DHT22;19510;54.486;9.046;2023-02-01T03:57:48;5.80;99.90
16838;DHT22;19510;54.486;9.046;2023-02-01T04:00:18;5.80;99.90
16838;DHT22;19510;54.486;9.046;2023-02-01T04:02:44;5.70;99.90
16838;DHT22;19510;54.486;9.046;2023-02-01T04:05:12;5.70;99.90
16838;DHT22;19510;54.486;9.046;2023-02-01T04:07:37;5.60;99.90
16838;DHT22;19510;54.486;9.046;2023-02-01T04:10:04;5.60;99.90
16838;DHT22;19510;54.486;9.046;2023-02-01T04:12:32;5.60;99.90
16838;DHT22;19510;54.486;9.046;2023-02-01T04:15:00;5.50;99.90
16838;DHT22;19510;54.486;9.046;2023-02-01T04:17:30;5.50;99.90
16838;DHT22;19510;54.486;9.046;2023-02-01T04:19:58;5.40;99.90
16838;DHT22;19510;54.486;9.046;2023-02-01T04:22:24;5.40;99.90
16838;DHT22;19510;54.486;9.046;2023-02-01T04:24:54;5.40;99.90
16838;DHT22;19510;54.486;9.046;2023-02-01T04:27:19;5.40;99.90
16838;DHT22;19510;54.486;9.046;2023-02-01T04:29:45;5.50;99.90
16838;DHT22;19510;54.486;9.046;2023-02-01T04:32:11;5.50;99.90
16838;DHT22;19510;54.486;9.046;2023-02-01T04:34:39;5.60;99.90
16838;DHT22;19510;54.486;9.046;2023-02-01T04:37:04;5.70;99.90
16838;DHT22;19510;54.486;9.046;2023-02-01T04:39:30;5.60;99.90
16838;DHT22;19510;54.486;9.046;2023-02-01T04:41:56;5.70;99.90
16838;DHT22;19510;54.486;9.046;2023-02-01T04:44:21;5.70;99.90
16838;DHT22;19510;54.486;9.046;2023-02-01T04:46:47;5.70;99.90
16838;DHT22;19510;54.486;9.046;2023-02-01T04:49:13;5.70;99.90
16838;DHT22;19510;54.486;9.046;2023-02-01T04:51:40;5.70;99.90
16838;DHT22;19510;54.486;9.046;2023-02-01T04:54:07;5.60;99.90
16838;DHT22;19510;54.486;9.046;2023-02-01T04:56:33;5.60;99.90
16838;DHT22;19510;54.486;9.046;2023-02-01T04:59:00;5.60;99.90
16838;DHT22;19510;54.486;9.046;2023-02-01T05:01:28;5.50;99.90
16838;DHT22;19510;54.486;9.046;2023-02-01T05:03:54;5.50;99.90
16838;DHT22;19510;54.486;9.046;2023-02-01T05:06:23;5.50;99.90
16838;DHT22;19510;54.486;9.046;2023-02-01T05:08:49;5.40;99.90
16838;DHT22;19510;54.486;9.046;2023-02-01T05:11:16;5.50;99.90
16838;DHT22;19510;54.486;9.046;2023-02-01T05:14:01;5.50;99.90
16838;DHT22;19510;54.486;9.046;2023-02-01T05:16:26;5.50;99.90
16838;DHT22;19510;54.486;9.046;2023-02-01T05:18:53;5.50;99.90
16838;DHT22;19510;54.486;9.046;2023-02-01T05:21:19;5.50;99.90
16838;DHT22;19510;54.486;9.046;2023-02-01T05:23:44;5.50;99.90
16838;DHT22;19510;54.486;9.046;2023-02-01T05:26:28;5.60;99.90
16838;DHT22;19510;54.486;9.046;2023-02-01T05:28:54;5.50;99.90
16838;DHT22;19510;54.486;9.046;2023-02-01T05:31:21;5.40;99.90
16838;DHT22;19510;54.486;9.046;2023-02-01T05:33:49;5.40;99.90
16838;DHT22;19510;54.486;9.046;2023-02-01T05:36:15;5.40;99.90
16838;DHT22;19510;54.486;9.046;2023-02-01T05:38:41;5.40;99.90
16838;DHT22;19510;54.486;9.046;2023-02-01T05:41:24;5.40;99.90
16838;DHT22;19510;54.486;9.046;2023-02-01T05:44:39;5.40;99.90
16838;DHT22;19510;54.486;9.046;2023-02-01T05:47:05;5.40;99.90
16838;DHT22;19510;54.486;9.046;2023-02-01T05:49:43;5.50;99.90
16838;DHT22;19510;54.486;9.046;2023-02-01T05:52:35;5.40;99.90
16838;DHT22;19510;54.486;9.046;2023-02-01T05:55:01;5.60;99.90
16838;DHT22;19510;54.486;9.046;2023-02-01T05:57:29;5.60;99.90
16838;DHT22;19510;54.486;9.046;2023-02-01T05:59:56;5.70;99.90
16838;DHT22;19510;54.486;9.046;2023-02-01T06:02:24;5.80;99.90
16838;DHT22;19510;54.486;9.046;2023-02-01T06:04:50;5.80;99.90
16838;DHT22;19510;54.486;9.046;2023-02-01T06:07:16;5.80;99.90
16838;DHT22;19510;54.486;9.046;2023-02-01T06:09:42;5.90;99.90
16838;DHT22;19510;54.486;9.046;2023-02-01T06:12:07;5.90;99.90
16838;DHT22;19510;54.486;9.046;2023-02-01T06:14:35;6.00;99.90
16838;DHT22;19510;54.486;9.046;2023-02-01T06:17:02;6.00;99.90
16838;DHT22;19510;54.486;9.046;2023-02-01T06:19:28;5.90;99.90
16838;DHT22;19510;54.486;9.046;2023-02-01T06:21:56;6.00;99.90
16838;DHT22;19510;54.486;9.046;2023-02-01T06:24:24;6.00;99.90
16838;DHT22;19510;54.486;9.046;2023-02-01T06:26:50;6.00;99.90
16838;DHT22;19510;54.486;9.046;2023-02-01T06:29:17;6.00;99.90
16838;DHT22;19510;54.486;9.046;2023-02-01T06:31:43;6.00;99.90
16838;DHT22;19510;54.486;9.046;2023-02-01T06:34:09;6.00;99.90
16838;DHT22;19510;54.486;9.046;2023-02-01T06:36:34;6.00;99.90
16838;DHT22;19510;54.486;9.046;2023-02-01T06:39:01;6.00;99.90
16838;DHT22;19510;54.486;9.046;2023-02-01T06:41:26;6.00;99.90
16838;DHT22;19510;54.486;9.046;2023-02-01T06:43:52;6.00;99.90
16838;DHT22;19510;54.486;9.046;2023-02-01T06:46:18;6.00;99.90
16838;DHT22;19510;54.486;9.046;2023-02-01T06:48:43;6.00;99.90
16838;DHT22;19510;54.486;9.046;2023-02-01T06:51:25;6.00;99.90
16838;DHT22;19510;54.486;9.046;2023-02-01T06:53:51;6.00;99.90
16838;DHT22;19510;54.486;9.046;2023-02-01T06:56:17;6.00;99.90
16838;DHT22;19510;54.486;9.046;2023-02-01T06:58:44;6.00;99.90
16838;DHT22;19510;54.486;9.046;2023-02-01T07:01:12;6.00;99.90
16838;DHT22;19510;54.486;9.046;2023-02-01T07:03:38;5.90;99.90
16838;DHT22;19510;54.486;9.046;2023-02-01T07:06:04;5.90;99.90
16838;DHT22;19510;54.486;9.046;2023-02-01T07:08:31;6.00;99.90
16838;DHT22;19510;54.486;9.046;2023-02-01T07:11:00;6.00;99.90
16838;DHT22;19510;54.486;9.046;2023-02-01T07:13:26;5.80;99.90
16838;DHT22;19510;54.486;9.046;2023-02-01T07:15:51;5.70;99.90
16838;DHT22;19510;54.486;9.046;2023-02-01T07:18:17;5.70;99.90
16838;DHT22;19510;54.486;9.046;2023-02-01T07:20:46;5.60;99.90
16838;DHT22;19510;54.486;9.046;2023-02-01T07:23:14;5.60;99.90
16838;DHT22;19510;54.486;9.046;2023-02-01T07:25:40;5.50;99.90
16838;DHT22;19510;54.486;9.046;2023-02-01T07:28:06;5.50;99.90
16838;DHT22;19510;54.486;9.046;2023-02-01T07:30:31;5.50;99.90
16838;DHT22;19510;54.486;9.046;2023-02-01T07:32:57;5.50;99.90
16838;DHT22;19510;54.486;9.046;2023-02-01T07:35:27;5.50;99.90
16838;DHT22;19510;54.486;9.046;2023-02-01T07:37:52;5.50;99.90
16838;DHT22;19510;54.486;9.046;2023-02-01T07:40:18;5.50;99.90
16838;DHT22;19510;54.486;9.046;2023-02-01T07:42:48;5.50;99.90
16838;DHT22;19510;54.486;9.046;2023-02-01T07:45:14;5.60;99.90
16838;DHT22;19510;54.486;9.046;2023-02-01T07:47:41;5.60;99.90
16838;DHT22;19510;54.486;9.046;2023-02-01T07:50:07;5.70;99.90
16838;DHT22;19510;54.486;9.046;2023-02-01T07:52:35;5.70;99.90
16838;DHT22;19510;54.486;9.046;2023-02-01T07:55:00;5.80;99.90
16838;DHT22;19510;54.486;9.046;2023-02-01T07:57:26;5.90;99.90
16838;DHT22;19510;54.486;9.046;2023-02-01T07:59:54;5.90;99.90
16838;DHT22;19510;54.486;9.046;2023-02-01T08:02:38;5.90;99.90
16838;DHT22;19510;54.486;9.046;2023-02-01T08:05:04;6.00;99.90
16838;DHT22;19510;54.486;9.046;2023-02-01T08:07:31;6.00;99.90
16838;DHT22;19510;54.486;9.046;2023-02-01T08:09:56;6.00;99.90
16838;DHT22;19510;54.486;9.046;2023-02-01T08:12:25;6.00;99.90
16838;DHT22;19510;54.486;9.046;2023-02-01T08:14:52;6.00;99.90
16838;DHT22;19510;54.486;9.046;2023-02-01T08:17:19;6.10;99.90
16838;DHT22;19510;54.486;9.046;2023-02-01T08:19:47;6.10;99.90
16838;DHT22;19510;54.486;9.046;2023-02-01T08:22:13;6.20;99.90
16838;DHT22;19510;54.486;9.046;2023-02-01T08:24:41;6.20;99.90
16838;DHT22;19510;54.486;9.046;2023-02-01T08:27:07;6.20;99.90
16838;DHT22;19510;54.486;9.046;2023-02-01T08:29:33;6.20;99.90
16838;DHT22;19510;54.486;9.046;2023-02-01T08:31:58;6.20;99.90
16838;DHT22;19510;54.486;9.046;2023-02-01T08:34:24;6.30;99.90
16838;DHT22;19510;54.486;9.046;2023-02-01T08:36:49;6.30;99.90
16838;DHT22;19510;54.486;9.046;2023-02-01T08:39:17;6.30;99.90
16838;DHT22;19510;54.486;9.046;2023-02-01T08:41:43;6.30;99.90
16838;DHT22;19510;54.486;9.046;2023-02-01T08:44:28;6.40;99.90
16838;DHT22;19510;54.486;9.046;2023-02-01T08:46:54;6.40;99.90
16838;DHT22;19510;54.486;9.046;2023-02-01T08:49:22;6.40;99.90
16838;DHT22;19510;54.486;9.046;2023-02-01T08:51:50;6.40;99.90
16838;DHT22;19510;54.486;9.046;2023-02-01T08:54:16;6.40;99.90
16838;DHT22;19510;54.486;9.046;2023-02-01T08:56:41;6.40;99.90
16838;DHT22;19510;54.486;9.046;2023-02-01T08:59:07;6.40;99.90
16838;DHT22;19510;54.486;9.046;2023-02-01T09:01:32;6.50;99.90
16838;DHT22;19510;54.486;9.046;2023-02-01T09:04:00;6.50;99.90
16838;DHT22;19510;54.486;9.046;2023-02-01T09:06:28;6.60;99.90
16838;DHT22;19510;54.486;9.046;2023-02-01T09:08:54;6.60;99.90
16838;DHT22;19510;54.486;9.046;2023-02-01T09:11:21;6.60;99.90
16838;DHT22;19510;54.486;9.046;2023-02-01T09:13:47;6.70;99.90
16838;DHT22;19510;54.486;9.046;2023-02-01T09:16:13;6.70;99.90
16838;DHT22;19510;54.486;9.046;2023-02-01T09:18:39;6.70;99.90
16838;DHT22;19510;54.486;9.046;2023-02-01T09:21:11;6.70;99.90
16838;DHT22;19510;54.486;9.046;2023-02-01T09:23:39;6.70;99.90
16838;DHT22;19510;54.486;9.046;2023-02-01T09:26:05;6.70;99.90
16838;DHT22;19510;54.486;9.046;2023-02-01T09:28:31;6.70;99.90
16838;DHT22;19510;54.486;9.046;2023-02-01T09:30:58;6.70;99.90
16838;DHT22;19510;54.486;9.046;2023-02-01T09:33:26;6.70;99.90
16838;DHT22;19510;54.486;9.046;2023-02-01T09:35:57;6.70;99.90
16838;DHT22;19510;54.486;9.046;2023-02-01T09:38:23;6.70;99.90
16838;DHT22;19510;54.486;9.046;2023-02-01T09:40:50;6.70;99.90
16838;DHT22;19510;54.486;9.046;2023-02-01T09:43:37;6.70;99.90
16838;DHT22;19510;54.486;9.046;2023-02-01T09:46:15;6.70;99.90
16838;DHT22;19510;54.486;9.046;2023-02-01T09:48:45;6.80;99.90
16838;DHT22;19510;54.486;9.046;2023-02-01T09:51:19;6.80;99.90
16838;DHT22;19510;54.486;9.046;2023-02-01T09:53:53;6.90;99.90
16838;DHT22;19510;54.486;9.046;2023-02-01T09:56:24;6.90;99.90
16838;DHT22;19510;54.486;9.046;2023-02-01T09:59:40;7.00;99.90
16838;DHT22;19510;54.486;9.046;2023-02-01T10:02:19;6.90;99.90
16838;DHT22;19510;54.486;9.046;2023-02-01T10:04:47;7.00;99.90
16838;DHT22;19510;54.486;9.046;2023-02-01T10:23:44;6.80;99.90
16838;DHT22;19510;54.486;9.046;2023-02-01T10:26:19;6.80;99.90
16838;DHT22;19510;54.486;9.046;2023-02-01T10:28:50;6.80;99.90
16838;DHT22;19510;54.486;9.046;2023-02-01T10:31:17;6.80;99.90
16838;DHT22;19510;54.486;9.046;2023-02-01T10:33:49;6.80;99.90
16838;DHT22;19510;54.486;9.046;2023-02-01T10:36:21;6.80;99.90
16838;DHT22;19510;54.486;9.046;2023-02-01T10:38:49;6.80;99.90
16838;DHT22;19510;54.486;9.046;2023-02-01T10:41:21;6.80;99.90
16838;DHT22;19510;54.486;9.046;2023-02-01T10:43:54;6.80;99.90
16838;DHT22;19510;54.486;9.046;2023-02-01T10:46:26;6.70;99.90
16838;DHT22;19510;54.486;9.046;2023-02-01T10:48:56;6.80;99.90
16838;DHT22;19510;54.486;9.046;2023-02-01T10:51:29;6.80;99.90
16838;DHT22;19510;54.486;9.046;2023-02-01T10:54:00;6.80;99.90
16838;DHT22;19510;54.486;9.046;2023-02-01T10:56:28;6.80;99.90
16838;DHT22;19510;54.486;9.046;2023-02-01T10:59:15;6.80;99.90
16838;DHT22;19510;54.486;9.046;2023-02-01T11:01:45;6.80;99.90
16838;DHT22;19510;54.486;9.046;2023-02-01T11:04:20;6.80;99.90
16838;DHT22;19510;54.486;9.046;2023-02-01T11:06:52;6.80;99.90
16838;DHT22;19510;54.486;9.046;2023-02-01T11:09:22;6.80;99.90
16838;DHT22;19510;54.486;9.046;2023-02-01T11:14:20;6.70;99.90
16838;DHT22;19510;54.486;9.046;2023-02-01T11:16:54;6.60;99.90
16838;DHT22;19510;54.486;9.046;2023-02-01T11:19:23;6.50;99.90
16838;DHT22;19510;54.486;9.046;2023-02-01T11:21:53;6.30;99.90
16838;DHT22;19510;54.486;9.046;2023-02-01T11:24:32;6.20;99.90
16838;DHT22;19510;54.486;9.046;2023-02-01T11:27:03;6.20;99.90
16838;DHT22;19510;54.486;9.046;2023-02-01T11:29:43;6.00;99.90
16838;DHT22;19510;54.486;9.046;2023-02-01T11:32:16;5.80;99.90
16838;DHT22;19510;54.486;9.046;2023-02-01T11:34:46;5.80;99.90
16838;DHT22;19510;54.486;9.046;2023-02-01T11:37:26;5.90;99.90
16838;DHT22;19510;54.486;9.046;2023-02-01T11:39:58;6.00;99.90
16838;DHT22;19510;54.486;9.046;2023-02-01T11:42:27;6.10;99.90
16838;DHT22;19510;54.486;9.046;2023-02-01T11:45:31;6.10;99.90
16838;DHT22;19510;54.486;9.046;2023-02-01T11:48:02;6.20;99.90
16838;DHT22;19510;54.486;9.046;2023-02-01T11:50:48;6.20;99.90
16838;DHT22;19510;54.486;9.046;2023-02-01T12:25:56;6.40;99.90
16838;DHT22;19510;54.486;9.046;2023-02-01T12:28:34;6.40;99.90
16838;DHT22;19510;54.486;9.046;2023-02-01T12:39:20;6.30;99.90
16838;DHT22;19510;54.486;9.046;2023-02-01T12:47:36;6.10;99.90
16838;DHT22;19510;54.486;9.046;2023-02-01T12:50:18;6.10;99.90
16838;DHT22;19510;54.486;9.046;2023-02-01T12:52:53;6.10;99.90
16838;DHT22;19510;54.486;9.046;2023-02-01T12:55:47;6.10;99.90
16838;DHT22;19510;54.486;9.046;2023-02-01T12:58:22;6.20;99.90
16838;DHT22;19510;54.486;9.046;2023-02-01T13:01:04;6.30;99.90
16838;DHT22;19510;54.486;9.046;2023-02-01T13:06:35;6.50;99.90
16838;DHT22;19510;54.486;9.046;2023-02-01T13:11:54;6.70;99.90
16838;DHT22;19510;54.486;9.046;2023-02-01T13:14:41;6.70;99.90
16838;DHT22;19510;54.486;9.046;2023-02-01T13:17:12;6.70;99.90
16838;DHT22;19510;54.486;9.046;2023-02-01T13:22:40;6.60;99.90
16838;DHT22;19510;54.486;9.046;2023-02-01T13:25:13;6.60;99.90
16838;DHT22;19510;54.486;9.046;2023-02-01T13:27:41;6.50;99.90
16838;DHT22;19510;54.486;9.046;2023-02-01T13:35:47;6.30;99.90
16838;DHT22;19510;54.486;9.046;2023-02-01T13:44:15;6.20;99.90
16838;DHT22;19510;54.486;9.046;2023-02-01T13:46:45;6.20;99.90
16838;DHT22;19510;54.486;9.046;2023-02-01T13:49:24;6.10;99.90
16838;DHT22;19510;54.486;9.046;2023-02-01T13:51:53;6.20;99.90
16838;DHT22;19510;54.486;9.046;2023-02-01T13:57:02;6.30;99.90
16838;DHT22;19510;54.486;9.046;2023-02-01T13:59:49;6.50;99.90
16838;DHT22;19510;54.486;9.046;2023-02-01T14:05:08;6.60;99.90
16838;DHT22;19510;54.486;9.046;2023-02-01T14:07:34;6.70;99.90
16838;DHT22;19510;54.486;9.046;2023-02-01T14:21:19;6.60;99.90
16838;DHT22;19510;54.486;9.046;2023-02-01T14:23:58;6.70;99.90
16838;DHT22;19510;54.486;9.046;2023-02-01T14:31:33;6.90;99.90
16838;DHT22;19510;54.486;9.046;2023-02-01T14:34:03;6.90;99.90
16838;DHT22;19510;54.486;9.046;2023-02-01T14:37:03;6.90;99.90
16838;DHT22;19510;54.486;9.046;2023-02-01T14:44:51;7.10;99.90
16838;DHT22;19510;54.486;9.046;2023-02-01T14:50:03;7.00;99.90
16838;DHT22;19510;54.486;9.046;2023-02-01T14:52:46;7.00;99.90
16838;DHT22;19510;54.486;9.046;2023-02-01T14:55:21;7.00;99.90
16838;DHT22;19510;54.486;9.046;2023-02-01T14:57:52;6.90;99.90
16838;DHT22;19510;54.486;9.046;2023-02-01T15:00:28;6.90;99.90
16838;DHT22;19510;54.486;9.046;2023-02-01T15:03:12;6.80;99.90
16838;DHT22;19510;54.486;9.046;2023-02-01T15:05:43;6.80;99.90
16838;DHT22;19510;54.486;9.046;2023-02-01T15:08:20;6.80;99.90
16838;DHT22;19510;54.486;9.046;2023-02-01T15:10:50;6.80;99.90
16838;DHT22;19510;54.486;9.046;2023-02-01T15:13:26;6.80;99.90
16838;DHT22;19510;54.486;9.046;2023-02-01T15:16:13;6.80;99.90
16838;DHT22;19510;54.486;9.046;2023-02-01T15:18:42;6.80;99.90
16838;DHT22;19510;54.486;9.046;2023-02-01T15:21:21;6.90;99.90
16838;DHT22;19510;54.486;9.046;2023-02-01T15:23:49;6.80;99.90
16838;DHT22;19510;54.486;9.046;2023-02-01T15:26:30;6.90;99.90
16838;DHT22;19510;54.486;9.046;2023-02-01T15:28:58;6.90;99.90
16838;DHT22;19510;54.486;9.046;2023-02-01T15:33:58;7.00;99.90
16838;DHT22;19510;54.486;9.046;2023-02-01T15:36:24;7.00;99.90
16838;DHT22;19510;54.486;9.046;2023-02-01T15:41:39;7.00;99.90
16838;DHT22;19510;54.486;9.046;2023-02-01T15:44:32;7.00;99.90
16838;DHT22;19510;54.486;9.046;2023-02-01T15:46:59;7.00;99.90
16838;DHT22;19510;54.486;9.046;2023-02-01T15:49:27;7.00;99.90
16838;DHT22;19510;54.486;9.046;2023-02-01T15:51:54;6.90;99.90
16838;DHT22;19510;54.486;9.046;2023-02-01T15:54:46;6.90;99.90
16838;DHT22;19510;54.486;9.046;2023-02-01T15:57:32;6.90;99.90
16838;DHT22;19510;54.486;9.046;2023-02-01T16:00:07;6.90;99.90
16838;DHT22;19510;54.486;9.046;2023-02-01T16:02:42;6.80;99.90
16838;DHT22;19510;54.486;9.046;2023-02-01T16:05:37;6.80;99.90
16838;DHT22;19510;54.486;9.046;2023-02-01T16:08:22;6.80;99.90
16838;DHT22;19510;54.486;9.046;2023-02-01T16:10:53;6.70;99.90
16838;DHT22;19510;54.486;9.046;2023-02-01T16:13:20;6.70;99.90
16838;DHT22;19510;54.486;9.046;2023-02-01T16:15:47;6.70;99.90
16838;DHT22;19510;54.486;9.046;2023-02-01T16:18:14;6.70;99.90
16838;DHT22;19510;54.486;9.046;2023-02-01T16:20:41;6.70;99.90
16838;DHT22;19510;54.486;9.046;2023-02-01T16:23:08;6.70;99.90
16838;DHT22;19510;54.486;9.046;2023-02-01T16:25:35;6.60;99.90
16838;DHT22;19510;54.486;9.046;2023-02-01T16:28:01;6.60;99.90
16838;DHT22;19510;54.486;9.046;2023-02-01T16:30:27;6.60;99.90
16838;DHT22;19510;54.486;9.046;2023-02-01T16:32:57;6.50;99.90
16838;DHT22;19510;54.486;9.046;2023-02-01T16:35:26;6.50;99.90
16838;DHT22;19510;54.486;9.046;2023-02-01T16:37:54;6.50;99.90
16838;DHT22;19510;54.486;9.046;2023-02-01T16:40:21;6.60;99.90
16838;DHT22;19510;54.486;9.046;2023-02-01T16:42:50;6.60;99.90
16838;DHT22;19510;54.486;9.046;2023-02-01T16:45:16;6.60;99.90
16838;DHT22;19510;54.486;9.046;2023-02-01T16:47:50;6.60;99.90
16838;DHT22;19510;54.486;9.046;2023-02-01T16:50:20;6.50;99.90
16838;DHT22;19510;54.486;9.046;2023-02-01T16:52:46;6.50;99.90
16838;DHT22;19510;54.486;9.046;2023-02-01T16:55:14;6.50;99.90
16838;DHT22;19510;54.486;9.046;2023-02-01T16:57:41;6.50;99.90
16838;DHT22;19510;54.486;9.046;2023-02-01T17:00:08;6.40;99.90
16838;DHT22;19510;54.486;9.046;2023-02-01T17:02:34;6.40;99.90
16838;DHT22;19510;54.486;9.046;2023-02-01T17:05:00;6.40;99.90
16838;DHT22;19510;54.486;9.046;2023-02-01T17:07:26;6.40;99.90
16838;DHT22;19510;54.486;9.046;2023-02-01T17:09:52;6.40;99.90
16838;DHT22;19510;54.486;9.046;2023-02-01T17:14:49;6.40;99.90
16838;DHT22;19510;54.486;9.046;2023-02-01T17:17:16;6.40;99.90
16838;DHT22;19510;54.486;9.046;2023-02-01T17:19:43;6.40;99.90
16838;DHT22;19510;54.486;9.046;2023-02-01T17:22:11;6.40;99.90
16838;DHT22;19510;54.486;9.046;2023-02-01T17:24:36;6.40;99.90
16838;DHT22;19510;54.486;9.046;2023-02-01T17:27:05;6.50;99.90
16838;DHT22;19510;54.486;9.046;2023-02-01T17:29:31;6.50;99.90
16838;DHT22;19510;54.486;9.046;2023-02-01T17:31:57;6.50;99.90
16838;DHT22;19510;54.486;9.046;2023-02-01T17:34:25;6.50;99.90
16838;DHT22;19510;54.486;9.046;2023-02-01T17:36:51;6.60;99.90
16838;DHT22;19510;54.486;9.046;2023-02-01T17:39:18;6.60;99.90
16838;DHT22;19510;54.486;9.046;2023-02-01T17:42:09;6.60;99.90
16838;DHT22;19510;54.486;9.046;2023-02-01T17:44:35;6.30;99.90
16838;DHT22;19510;54.486;9.046;2023-02-01T17:47:01;6.10;99.90
16838;DHT22;19510;54.486;9.046;2023-02-01T17:49:27;6.00;99.90
16838;DHT22;19510;54.486;9.046;2023-02-01T17:51:56;5.80;99.90
16838;DHT22;19510;54.486;9.046;2023-02-01T17:54:22;5.80;99.90
16838;DHT22;19510;54.486;9.046;2023-02-01T17:56:50;5.80;99.90
16838;DHT22;19510;54.486;9.046;2023-02-01T17:59:15;5.80;99.90
16838;DHT22;19510;54.486;9.046;2023-02-01T18:01:42;5.70;99.90
16838;DHT22;19510;54.486;9.046;2023-02-01T18:04:12;5.70;99.90
16838;DHT22;19510;54.486;9.046;2023-02-01T18:06:40;5.70;99.90
16838;DHT22;19510;54.486;9.046;2023-02-01T18:09:07;5.70;99.90
16838;DHT22;19510;54.486;9.046;2023-02-01T18:11:33;5.70;99.90
16838;DHT22;19510;54.486;9.046;2023-02-01T18:13:59;5.80;99.90
16838;DHT22;19510;54.486;9.046;2023-02-01T18:16:30;5.70;99.90
16838;DHT22;19510;54.486;9.046;2023-02-01T18:18:58;5.70;99.90
16838;DHT22;19510;54.486;9.046;2023-02-01T18:21:37;5.70;99.90
16838;DHT22;19510;54.486;9.046;2023-02-01T18:27:25;5.60;99.90
16838;DHT22;19510;54.486;9.046;2023-02-01T18:29:51;5.70;99.90
16838;DHT22;19510;54.486;9.046;2023-02-01T18:32:17;5.70;99.90
16838;DHT22;19510;54.486;9.046;2023-02-01T18:34:43;5.70;99.90
16838;DHT22;19510;54.486;9.046;2023-02-01T18:37:08;5.70;99.90
16838;DHT22;19510;54.486;9.046;2023-02-01T18:39:34;5.80;99.90
16838;DHT22;19510;54.486;9.046;2023-02-01T18:42:00;5.80;99.90
16838;DHT22;19510;54.486;9.046;2023-02-01T18:44:25;5.80;99.90
16838;DHT22;19510;54.486;9.046;2023-02-01T18:46:51;5.90;99.90